sensor_id;sensor_type;location;lat;lon;timestamp;P1;durP1;ratioP1;P2;durP2;ratioP2
66523;SDS011;53350;52.210;5.160;2023-06-05T00:02:24;11.68;;;4.40;;
66523;SDS011;53350;52.210;5.160;2023-06-05T00:04:51;9.63;;;4.43;;
66523;SDS011;53350;52.210;5.160;2023-06-05T00:07:18;12.52;;;3.78;;
66523;SDS011;53350;52.210;5.160;2023-06-05T00:09:46;9.48;;;4.35;;
66523;SDS011;53350;52.210;5.160;2023-06-05T00:12:12;8.13;;;4.20;;
66523;SDS011;53350;52.210;5.160;2023-06-05T00:14:39;9.10;;;4.32;;
66523;SDS011;53350;52.210;5.160;2023-06-05T00:17:06;8.75;;;4.45;;
66523;SDS011;53350;52.210;5.160;2023-06-05T00:19:34;10.07;;;4.32;;
66523;SDS011;53350;52.210;5.160;2023-06-05T00:22:00;10.13;;;4.22;;
66523;SDS011;53350;52.210;5.160;2023-06-05T00:24:27;8.25;;;4.32;;
66523;SDS011;53350;52.210;5.160;2023-06-05T00:26:55;9.18;;;4.50;;
66523;SDS011;53350;52.210;5.160;2023-06-05T00:29:21;9.07;;;3.97;;
66523;SDS011;53350;52.210;5.160;2023-06-05T00:31:47;9.65;;;4.78;;
66523;SDS011;53350;52.210;5.160;2023-06-05T00:34:14;9.13;;;3.88;;
66523;SDS011;53350;52.210;5.160;2023-06-05T00:36:40;11.45;;;4.47;;
66523;SDS011;53350;52.210;5.160;2023-06-05T00:39:07;11.13;;;4.82;;
66523;SDS011;53350;52.210;5.160;2023-06-05T00:41:34;11.07;;;3.50;;
66523;SDS011;53350;52.210;5.160;2023-06-05T00:44:03;13.80;;;4.65;;
66523;SDS011;53350;52.210;5.160;2023-06-05T00:46:29;10.35;;;4.70;;
66523;SDS011;53350;52.210;5.160;2023-06-05T00:48:56;11.73;;;4.28;;
66523;SDS011;53350;52.210;5.160;2023-06-05T00:51:23;8.60;;;5.03;;
66523;SDS011;53350;52.210;5.160;2023-06-05T00:53:49;12.20;;;5.03;;
66523;SDS011;53350;52.210;5.160;2023-06-05T00:56:16;10.48;;;4.65;;
66523;SDS011;53350;52.210;5.160;2023-06-05T00:58:45;9.43;;;4.78;;
66523;SDS011;53350;52.210;5.160;2023-06-05T01:01:14;12.13;;;4.95;;
66523;SDS011;53350;52.210;5.160;2023-06-05T01:03:42;7.57;;;4.22;;
66523;SDS011;53350;52.210;5.160;2023-06-05T01:06:09;10.05;;;5.03;;
66523;SDS011;53350;52.210;5.160;2023-06-05T01:08:36;10.18;;;4.78;;
66523;SDS011;53350;52.210;5.160;2023-06-05T01:11:05;16.48;;;5.20;;
66523;SDS011;53350;52.210;5.160;2023-06-05T01:13:37;8.38;;;4.85;;
66523;SDS011;53350;52.210;5.160;2023-06-05T01:16:11;9.48;;;4.75;;
66523;SDS011;53350;52.210;5.160;2023-06-05T01:18:40;11.98;;;5.10;;
66523;SDS011;53350;52.210;5.160;2023-06-05T01:21:10;10.70;;;5.00;;
66523;SDS011;53350;52.210;5.160;2023-06-05T01:23:41;10.20;;;3.90;;
66523;SDS011;53350;52.210;5.160;2023-06-05T01:26:09;12.07;;;5.07;;
66523;SDS011;53350;52.210;5.160;2023-06-05T01:28:41;9.75;;;5.15;;
66523;SDS011;53350;52.210;5.160;2023-06-05T01:31:13;10.00;;;5.10;;
66523;SDS011;53350;52.210;5.160;2023-06-05T01:33:46;10.13;;;4.88;;
66523;SDS011;53350;52.210;5.160;2023-06-05T01:36:17;9.13;;;4.75;;
66523;SDS011;53350;52.210;5.160;2023-06-05T01:38:45;10.68;;;5.38;;
66523;SDS011;53350;52.210;5.160;2023-06-05T01:41:14;13.57;;;4.88;;
66523;SDS011;53350;52.210;5.160;2023-06-05T01:43:42;9.82;;;4.50;;
66523;SDS011;53350;52.210;5.160;2023-06-05T01:46:09;12.93;;;5.03;;
66523;SDS011;53350;52.210;5.160;2023-06-05T01:48:36;10.77;;;5.72;;
66523;SDS011;53350;52.210;5.160;2023-06-05T01:51:04;12.20;;;5.80;;
66523;SDS011;53350;52.210;5.160;2023-06-05T01:53:31;12.50;;;4.88;;
66523;SDS011;53350;52.210;5.160;2023-06-05T01:55:58;11.52;;;5.43;;
66523;SDS011;53350;52.210;5.160;2023-06-05T01:58:26;14.98;;;5.70;;
66523;SDS011;53350;52.210;5.160;2023-06-05T02:00:53;10.00;;;4.80;;
66523;SDS011;53350;52.210;5.160;2023-06-05T02:03:22;13.07;;;5.47;;
66523;SDS011;53350;52.210;5.160;2023-06-05T02:05:49;12.35;;;5.65;;
66523;SDS011;53350;52.210;5.160;2023-06-05T02:08:16;8.77;;;5.28;;
66523;SDS011;53350;52.210;5.160;2023-06-05T02:10:44;11.00;;;5.45;;
66523;SDS011;53350;52.210;5.160;2023-06-05T02:13:13;11.57;;;5.90;;
66523;SDS011;53350;52.210;5.160;2023-06-05T02:15:40;10.20;;;5.20;;
66523;SDS011;53350;52.210;5.160;2023-06-05T02:18:07;9.18;;;5.40;;
66523;SDS011;53350;52.210;5.160;2023-06-05T02:20:33;11.55;;;5.57;;
66523;SDS011;53350;52.210;5.160;2023-06-05T02:23:01;7.80;;;4.72;;
66523;SDS011;53350;52.210;5.160;2023-06-05T02:25:27;10.23;;;5.10;;
66523;SDS011;53350;52.210;5.160;2023-06-05T02:27:54;11.40;;;5.22;;
66523;SDS011;53350;52.210;5.160;2023-06-05T02:30:23;14.05;;;5.70;;
66523;SDS011;53350;52.210;5.160;2023-06-05T02:32:50;12.25;;;5.53;;
66523;SDS011;53350;52.210;5.160;2023-06-05T02:35:21;9.13;;;5.30;;
66523;SDS011;53350;52.210;5.160;2023-06-05T02:37:47;9.70;;;5.60;;
66523;SDS011;53350;52.210;5.160;2023-06-05T02:40:14;9.95;;;5.35;;
66523;SDS011;53350;52.210;5.160;2023-06-05T02:42:40;12.13;;;5.70;;
66523;SDS011;53350;52.210;5.160;2023-06-05T02:45:07;12.13;;;5.93;;
66523;SDS011;53350;52.210;5.160;2023-06-05T02:47:36;14.77;;;6.73;;
66523;SDS011;53350;52.210;5.160;2023-06-05T02:50:03;12.88;;;6.47;;
66523;SDS011;53350;52.210;5.160;2023-06-05T02:52:30;11.70;;;6.53;;
66523;SDS011;53350;52.210;5.160;2023-06-05T02:54:59;10.82;;;5.90;;
66523;SDS011;53350;52.210;5.160;2023-06-05T02:57:26;17.38;;;6.85;;
66523;SDS011;53350;52.210;5.160;2023-06-05T02:59:53;11.82;;;6.50;;
66523;SDS011;53350;52.210;5.160;2023-06-05T03:02:20;11.15;;;6.60;;
66523;SDS011;53350;52.210;5.160;2023-06-05T03:04:48;13.07;;;6.80;;
66523;SDS011;53350;52.210;5.160;2023-06-05T03:07:18;13.10;;;6.10;;
66523;SDS011;53350;52.210;5.160;2023-06-05T03:09:45;11.43;;;5.95;;
66523;SDS011;53350;52.210;5.160;2023-06-05T03:12:11;11.85;;;6.15;;
66523;SDS011;53350;52.210;5.160;2023-06-05T03:14:37;11.65;;;6.68;;
66523;SDS011;53350;52.210;5.160;2023-06-05T03:17:04;10.48;;;5.93;;
66523;SDS011;53350;52.210;5.160;2023-06-05T03:19:31;14.57;;;6.72;;
66523;SDS011;53350;52.210;5.160;2023-06-05T03:21:58;12.77;;;6.72;;
66523;SDS011;53350;52.210;5.160;2023-06-05T03:24:25;12.13;;;7.25;;
66523;SDS011;53350;52.210;5.160;2023-06-05T03:26:52;12.88;;;6.63;;
66523;SDS011;53350;52.210;5.160;2023-06-05T03:29:18;10.70;;;6.15;;
66523;SDS011;53350;52.210;5.160;2023-06-05T03:31:45;11.23;;;4.95;;
66523;SDS011;53350;52.210;5.160;2023-06-05T03:34:11;15.80;;;6.93;;
66523;SDS011;53350;52.210;5.160;2023-06-05T03:36:38;14.43;;;7.85;;
66523;SDS011;53350;52.210;5.160;2023-06-05T03:39:06;10.98;;;6.72;;
66523;SDS011;53350;52.210;5.160;2023-06-05T03:41:33;16.67;;;7.18;;
66523;SDS011;53350;52.210;5.160;2023-06-05T03:44:00;12.23;;;7.25;;
66523;SDS011;53350;52.210;5.160;2023-06-05T03:48:55;15.55;;;6.68;;
66523;SDS011;53350;52.210;5.160;2023-06-05T03:53:53;13.27;;;6.38;;
66523;SDS011;53350;52.210;5.160;2023-06-05T03:56:21;12.25;;;6.60;;
66523;SDS011;53350;52.210;5.160;2023-06-05T03:58:48;14.52;;;7.07;;
66523;SDS011;53350;52.210;5.160;2023-06-05T04:01:15;14.80;;;6.68;;
66523;SDS011;53350;52.210;5.160;2023-06-05T04:03:41;14.70;;;6.80;;
66523;SDS011;53350;52.210;5.160;2023-06-05T04:06:08;11.95;;;6.15;;
66523;SDS011;53350;52.210;5.160;2023-06-05T04:08:35;12.57;;;6.88;;
66523;SDS011;53350;52.210;5.160;2023-06-05T04:11:02;10.95;;;7.10;;
66523;SDS011;53350;52.210;5.160;2023-06-05T04:13:30;10.85;;;6.72;;
66523;SDS011;53350;52.210;5.160;2023-06-05T04:15:56;15.43;;;7.00;;
66523;SDS011;53350;52.210;5.160;2023-06-05T04:18:23;12.57;;;6.68;;
66523;SDS011;53350;52.210;5.160;2023-06-05T04:20:49;12.85;;;6.85;;
66523;SDS011;53350;52.210;5.160;2023-06-05T04:23:16;14.05;;;6.05;;
66523;SDS011;53350;52.210;5.160;2023-06-05T04:25:42;10.18;;;6.50;;
66523;SDS011;53350;52.210;5.160;2023-06-05T04:28:10;13.20;;;7.13;;
66523;SDS011;53350;52.210;5.160;2023-06-05T04:30:39;13.45;;;6.15;;
66523;SDS011;53350;52.210;5.160;2023-06-05T04:33:05;11.35;;;5.93;;
66523;SDS011;53350;52.210;5.160;2023-06-05T04:35:32;13.27;;;6.55;;
66523;SDS011;53350;52.210;5.160;2023-06-05T04:37:58;10.93;;;6.63;;
66523;SDS011;53350;52.210;5.160;2023-06-05T04:40:25;15.35;;;6.80;;
66523;SDS011;53350;52.210;5.160;2023-06-05T04:42:52;14.10;;;5.57;;
66523;SDS011;53350;52.210;5.160;2023-06-05T04:45:19;13.20;;;6.22;;
66523;SDS011;53350;52.210;5.160;2023-06-05T04:47:47;10.90;;;6.45;;
66523;SDS011;53350;52.210;5.160;2023-06-05T04:50:21;11.10;;;5.60;;
66523;SDS011;53350;52.210;5.160;2023-06-05T04:52:49;12.95;;;5.85;;
66523;SDS011;53350;52.210;5.160;2023-06-05T04:55:17;10.90;;;5.43;;
66523;SDS011;53350;52.210;5.160;2023-06-05T04:57:43;11.18;;;5.40;;
66523;SDS011;53350;52.210;5.160;2023-06-05T05:00:10;9.98;;;3.97;;
66523;SDS011;53350;52.210;5.160;2023-06-05T05:02:38;10.13;;;5.53;;
66523;SDS011;53350;52.210;5.160;2023-06-05T05:05:06;9.90;;;4.72;;
66523;SDS011;53350;52.210;5.160;2023-06-05T05:07:33;11.55;;;5.47;;
66523;SDS011;53350;52.210;5.160;2023-06-05T05:10:00;10.88;;;5.82;;
66523;SDS011;53350;52.210;5.160;2023-06-05T05:12:26;12.48;;;5.93;;
66523;SDS011;53350;52.210;5.160;2023-06-05T05:14:53;14.55;;;6.85;;
66523;SDS011;53350;52.210;5.160;2023-06-05T05:17:19;13.35;;;6.50;;
66523;SDS011;53350;52.210;5.160;2023-06-05T05:19:47;10.57;;;6.10;;
66523;SDS011;53350;52.210;5.160;2023-06-05T05:22:15;10.57;;;6.72;;
66523;SDS011;53350;52.210;5.160;2023-06-05T05:24:42;12.88;;;6.65;;
66523;SDS011;53350;52.210;5.160;2023-06-05T05:27:08;11.85;;;6.25;;
66523;SDS011;53350;52.210;5.160;2023-06-05T05:29:35;11.98;;;6.45;;
66523;SDS011;53350;52.210;5.160;2023-06-05T05:32:01;13.35;;;7.53;;
66523;SDS011;53350;52.210;5.160;2023-06-05T05:34:27;13.55;;;6.78;;
66523;SDS011;53350;52.210;5.160;2023-06-05T05:36:54;12.27;;;6.93;;
66523;SDS011;53350;52.210;5.160;2023-06-05T05:39:23;12.98;;;7.15;;
66523;SDS011;53350;52.210;5.160;2023-06-05T05:41:49;14.55;;;8.05;;
66523;SDS011;53350;52.210;5.160;2023-06-05T05:44:15;8.02;;;4.43;;
66523;SDS011;53350;52.210;5.160;2023-06-05T05:46:44;11.95;;;7.10;;
66523;SDS011;53350;52.210;5.160;2023-06-05T05:49:11;11.70;;;6.43;;
66523;SDS011;53350;52.210;5.160;2023-06-05T05:51:38;9.93;;;5.50;;
66523;SDS011;53350;52.210;5.160;2023-06-05T05:54:05;12.23;;;6.68;;
66523;SDS011;53350;52.210;5.160;2023-06-05T05:56:33;9.43;;;5.90;;
66523;SDS011;53350;52.210;5.160;2023-06-05T05:59:01;9.82;;;5.35;;
66523;SDS011;53350;52.210;5.160;2023-06-05T06:01:28;12.45;;;6.15;;
66523;SDS011;53350;52.210;5.160;2023-06-05T06:03:54;10.45;;;5.93;;
66523;SDS011;53350;52.210;5.160;2023-06-05T06:06:21;10.18;;;5.65;;
66523;SDS011;53350;52.210;5.160;2023-06-05T06:08:48;9.18;;;5.15;;
66523;SDS011;53350;52.210;5.160;2023-06-05T06:11:14;10.00;;;5.60;;
66523;SDS011;53350;52.210;5.160;2023-06-05T06:13:43;9.88;;;4.47;;
66523;SDS011;53350;52.210;5.160;2023-06-05T06:16:09;9.32;;;5.18;;
66523;SDS011;53350;52.210;5.160;2023-06-05T06:18:36;8.68;;;5.18;;
66523;SDS011;53350;52.210;5.160;2023-06-05T06:21:02;13.40;;;5.88;;
66523;SDS011;53350;52.210;5.160;2023-06-05T06:23:29;9.32;;;5.43;;
66523;SDS011;53350;52.210;5.160;2023-06-05T06:25:56;8.75;;;4.40;;
66523;SDS011;53350;52.210;5.160;2023-06-05T06:28:22;10.80;;;5.65;;
66523;SDS011;53350;52.210;5.160;2023-06-05T06:30:51;12.07;;;5.72;;
66523;SDS011;53350;52.210;5.160;2023-06-05T06:33:17;11.57;;;6.38;;
66523;SDS011;53350;52.210;5.160;2023-06-05T06:35:44;10.52;;;5.97;;
66523;SDS011;53350;52.210;5.160;2023-06-05T06:38:10;8.85;;;5.55;;
66523;SDS011;53350;52.210;5.160;2023-06-05T06:40:37;11.63;;;5.95;;
66523;SDS011;53350;52.210;5.160;2023-06-05T06:43:03;7.63;;;3.75;;
66523;SDS011;53350;52.210;5.160;2023-06-05T06:45:30;9.55;;;6.32;;
66523;SDS011;53350;52.210;5.160;2023-06-05T06:47:58;10.88;;;6.32;;
66523;SDS011;53350;52.210;5.160;2023-06-05T06:50:24;12.35;;;6.60;;
66523;SDS011;53350;52.210;5.160;2023-06-05T06:52:51;13.07;;;6.07;;
66523;SDS011;53350;52.210;5.160;2023-06-05T06:55:17;10.75;;;5.53;;
66523;SDS011;53350;52.210;5.160;2023-06-05T06:57:44;9.35;;;5.18;;
66523;SDS011;53350;52.210;5.160;2023-06-05T07:00:11;13.13;;;5.95;;
66523;SDS011;53350;52.210;5.160;2023-06-05T07:02:39;9.68;;;5.53;;
66523;SDS011;53350;52.210;5.160;2023-06-05T07:05:07;9.25;;;5.95;;
66523;SDS011;53350;52.210;5.160;2023-06-05T07:07:34;10.30;;;5.60;;
66523;SDS011;53350;52.210;5.160;2023-06-05T07:10:00;8.93;;;5.10;;
66523;SDS011;53350;52.210;5.160;2023-06-05T07:12:27;9.30;;;5.53;;
66523;SDS011;53350;52.210;5.160;2023-06-05T07:14:53;10.88;;;4.47;;
66523;SDS011;53350;52.210;5.160;2023-06-05T07:17:20;11.13;;;5.05;;
66523;SDS011;53350;52.210;5.160;2023-06-05T07:19:47;6.72;;;3.88;;
66523;SDS011;53350;52.210;5.160;2023-06-05T07:22:14;8.32;;;4.43;;
66523;SDS011;53350;52.210;5.160;2023-06-05T07:24:41;9.73;;;4.22;;
66523;SDS011;53350;52.210;5.160;2023-06-05T07:27:08;8.77;;;4.78;;
66523;SDS011;53350;52.210;5.160;2023-06-05T07:29:35;7.00;;;3.88;;
66523;SDS011;53350;52.210;5.160;2023-06-05T07:32:01;8.98;;;4.07;;
66523;SDS011;53350;52.210;5.160;2023-06-05T07:34:31;7.43;;;4.78;;
66523;SDS011;53350;52.210;5.160;2023-06-05T07:36:59;8.98;;;4.82;;
66523;SDS011;53350;52.210;5.160;2023-06-05T07:39:27;9.65;;;4.63;;
66523;SDS011;53350;52.210;5.160;2023-06-05T07:41:53;10.48;;;4.13;;
66523;SDS011;53350;52.210;5.160;2023-06-05T07:44:20;8.05;;;3.42;;
66523;SDS011;53350;52.210;5.160;2023-06-05T07:46:47;12.65;;;4.30;;
66523;SDS011;53350;52.210;5.160;2023-06-05T07:49:14;7.67;;;4.07;;
66523;SDS011;53350;52.210;5.160;2023-06-05T07:51:41;9.32;;;4.53;;
66523;SDS011;53350;52.210;5.160;2023-06-05T07:54:09;10.63;;;4.63;;
66523;SDS011;53350;52.210;5.160;2023-06-05T07:56:38;9.80;;;4.45;;
66523;SDS011;53350;52.210;5.160;2023-06-05T08:01:32;5.93;;;2.80;;
66523;SDS011;53350;52.210;5.160;2023-06-05T08:04:01;7.78;;;4.28;;
66523;SDS011;53350;52.210;5.160;2023-06-05T08:06:28;6.60;;;2.80;;
66523;SDS011;53350;52.210;5.160;2023-06-05T08:08:54;9.38;;;5.00;;
66523;SDS011;53350;52.210;5.160;2023-06-05T08:11:21;8.07;;;4.20;;
66523;SDS011;53350;52.210;5.160;2023-06-05T08:13:49;8.32;;;3.88;;
66523;SDS011;53350;52.210;5.160;2023-06-05T08:16:15;9.40;;;4.35;;
66523;SDS011;53350;52.210;5.160;2023-06-05T08:18:42;8.77;;;4.47;;
66523;SDS011;53350;52.210;5.160;2023-06-05T08:21:09;11.25;;;4.38;;
66523;SDS011;53350;52.210;5.160;2023-06-05T08:23:36;10.05;;;5.65;;
66523;SDS011;53350;52.210;5.160;2023-06-05T08:26:02;12.30;;;4.90;;
66523;SDS011;53350;52.210;5.160;2023-06-05T08:28:35;9.70;;;4.75;;
66523;SDS011;53350;52.210;5.160;2023-06-05T08:31:03;9.23;;;5.13;;
66523;SDS011;53350;52.210;5.160;2023-06-05T08:33:30;10.35;;;5.50;;
66523;SDS011;53350;52.210;5.160;2023-06-05T08:35:57;9.50;;;5.05;;
66523;SDS011;53350;52.210;5.160;2023-06-05T08:38:23;9.60;;;5.10;;
66523;SDS011;53350;52.210;5.160;2023-06-05T08:40:51;13.77;;;5.57;;
66523;SDS011;53350;52.210;5.160;2023-06-05T08:43:23;9.77;;;5.10;;
66523;SDS011;53350;52.210;5.160;2023-06-05T08:45:50;8.15;;;4.72;;
66523;SDS011;53350;52.210;5.160;2023-06-05T08:48:19;10.55;;;5.40;;
66523;SDS011;53350;52.210;5.160;2023-06-05T08:50:47;9.50;;;5.50;;
66523;SDS011;53350;52.210;5.160;2023-06-05T08:53:14;10.98;;;6.03;;
66523;SDS011;53350;52.210;5.160;2023-06-05T08:55:43;7.90;;;4.85;;
66523;SDS011;53350;52.210;5.160;2023-06-05T08:58:10;8.85;;;4.30;;
66523;SDS011;53350;52.210;5.160;2023-06-05T09:00:38;9.15;;;5.35;;
66523;SDS011;53350;52.210;5.160;2023-06-05T09:03:05;9.52;;;4.70;;
66523;SDS011;53350;52.210;5.160;2023-06-05T09:05:33;7.90;;;4.78;;
66523;SDS011;53350;52.210;5.160;2023-06-05T09:08:00;9.65;;;4.20;;
66523;SDS011;53350;52.210;5.160;2023-06-05T09:10:27;8.63;;;4.60;;
66523;SDS011;53350;52.210;5.160;2023-06-05T09:12:55;6.75;;;3.42;;
66523;SDS011;53350;52.210;5.160;2023-06-05T09:15:23;7.00;;;4.03;;
66523;SDS011;53350;52.210;5.160;2023-06-05T09:18:07;7.95;;;4.78;;
66523;SDS011;53350;52.210;5.160;2023-06-05T09:20:37;7.55;;;4.20;;
66523;SDS011;53350;52.210;5.160;2023-06-05T09:23:20;8.25;;;4.65;;
66523;SDS011;53350;52.210;5.160;2023-06-05T09:25:49;7.47;;;4.75;;
66523;SDS011;53350;52.210;5.160;2023-06-05T09:28:16;8.50;;;4.53;;
66523;SDS011;53350;52.210;5.160;2023-06-05T09:30:55;10.15;;;4.90;;
66523;SDS011;53350;52.210;5.160;2023-06-05T09:33:23;9.57;;;5.50;;
66523;SDS011;53350;52.210;5.160;2023-06-05T09:36:07;7.88;;;4.47;;
66523;SDS011;53350;52.210;5.160;2023-06-05T09:38:35;6.57;;;3.67;;
66523;SDS011;53350;52.210;5.160;2023-06-05T09:41:03;9.68;;;4.45;;
66523;SDS011;53350;52.210;5.160;2023-06-05T09:43:30;8.48;;;4.13;;
66523;SDS011;53350;52.210;5.160;2023-06-05T09:45:57;28.77;;;4.25;;
66523;SDS011;53350;52.210;5.160;2023-06-05T09:48:24;9.40;;;4.53;;
66523;SDS011;53350;52.210;5.160;2023-06-05T09:50:52;10.48;;;4.30;;
66523;SDS011;53350;52.210;5.160;2023-06-05T09:53:20;13.27;;;4.68;;
66523;SDS011;53350;52.210;5.160;2023-06-05T09:55:47;8.40;;;4.07;;
66523;SDS011;53350;52.210;5.160;2023-06-05T09:58:15;7.30;;;3.50;;
66523;SDS011;53350;52.210;5.160;2023-06-05T10:00:43;8.95;;;4.13;;
66523;SDS011;53350;52.210;5.160;2023-06-05T10:03:12;9.63;;;4.57;;
66523;SDS011;53350;52.210;5.160;2023-06-05T10:05:43;9.38;;;4.07;;
66523;SDS011;53350;52.210;5.160;2023-06-05T10:08:11;7.03;;;4.18;;
66523;SDS011;53350;52.210;5.160;2023-06-05T10:10:40;7.85;;;3.90;;
66523;SDS011;53350;52.210;5.160;2023-06-05T10:13:08;10.82;;;4.40;;
66523;SDS011;53350;52.210;5.160;2023-06-05T10:15:36;10.07;;;3.95;;
66523;SDS011;53350;52.210;5.160;2023-06-05T10:18:03;7.85;;;4.43;;
66523;SDS011;53350;52.210;5.160;2023-06-05T10:20:31;7.77;;;3.67;;
66523;SDS011;53350;52.210;5.160;2023-06-05T10:23:00;7.57;;;3.80;;
66523;SDS011;53350;52.210;5.160;2023-06-05T10:25:27;7.38;;;4.25;;
66523;SDS011;53350;52.210;5.160;2023-06-05T10:28:00;8.10;;;3.85;;
66523;SDS011;53350;52.210;5.160;2023-06-05T10:33:51;7.57;;;4.00;;
66523;SDS011;53350;52.210;5.160;2023-06-05T10:36:32;7.45;;;3.65;;
66523;SDS011;53350;52.210;5.160;2023-06-05T10:39:09;6.57;;;3.67;;
66523;SDS011;53350;52.210;5.160;2023-06-05T10:41:37;7.10;;;3.67;;
66523;SDS011;53350;52.210;5.160;2023-06-05T10:44:05;6.55;;;3.47;;
66523;SDS011;53350;52.210;5.160;2023-06-05T10:46:32;10.80;;;3.83;;
66523;SDS011;53350;52.210;5.160;2023-06-05T10:49:05;8.68;;;3.20;;
66523;SDS011;53350;52.210;5.160;2023-06-05T10:51:38;6.55;;;3.53;;
66523;SDS011;53350;52.210;5.160;2023-06-05T10:59:25;8.63;;;3.53;;
66523;SDS011;53350;52.210;5.160;2023-06-05T11:05:02;7.00;;;3.33;;
66523;SDS011;53350;52.210;5.160;2023-06-05T11:07:30;7.35;;;3.45;;
66523;SDS011;53350;52.210;5.160;2023-06-05T11:10:06;9.13;;;3.40;;
66523;SDS011;53350;52.210;5.160;2023-06-05T11:15:35;7.20;;;3.85;;
66523;SDS011;53350;52.210;5.160;2023-06-05T11:18:26;6.97;;;2.95;;
66523;SDS011;53350;52.210;5.160;2023-06-05T11:21:04;6.68;;;3.55;;
66523;SDS011;53350;52.210;5.160;2023-06-05T11:23:31;8.03;;;3.63;;
66523;SDS011;53350;52.210;5.160;2023-06-05T11:26:37;6.65;;;3.35;;
66523;SDS011;53350;52.210;5.160;2023-06-05T11:29:09;7.90;;;2.97;;
66523;SDS011;53350;52.210;5.160;2023-06-05T11:31:38;7.05;;;3.45;;
66523;SDS011;53350;52.210;5.160;2023-06-05T11:36:36;7.90;;;3.70;;
66523;SDS011;53350;52.210;5.160;2023-06-05T11:39:04;9.85;;;3.42;;
66523;SDS011;53350;52.210;5.160;2023-06-05T11:41:32;7.93;;;3.28;;
66523;SDS011;53350;52.210;5.160;2023-06-05T11:43:59;8.00;;;3.00;;
66523;SDS011;53350;52.210;5.160;2023-06-05T11:46:35;6.88;;;3.40;;
66523;SDS011;53350;52.210;5.160;2023-06-05T11:49:04;8.13;;;3.80;;
66523;SDS011;53350;52.210;5.160;2023-06-05T11:51:32;6.82;;;3.60;;
66523;SDS011;53350;52.210;5.160;2023-06-05T11:53:59;9.65;;;3.92;;
66523;SDS011;53350;52.210;5.160;2023-06-05T11:56:26;10.85;;;3.80;;
66523;SDS011;53350;52.210;5.160;2023-06-05T12:01:21;7.03;;;3.60;;
66523;SDS011;53350;52.210;5.160;2023-06-05T12:03:48;8.95;;;4.03;;
66523;SDS011;53350;52.210;5.160;2023-06-05T12:06:17;6.80;;;3.78;;
66523;SDS011;53350;52.210;5.160;2023-06-05T12:08:43;9.82;;;4.32;;
66523;SDS011;53350;52.210;5.160;2023-06-05T12:11:20;10.63;;;4.60;;
66523;SDS011;53350;52.210;5.160;2023-06-05T12:13:51;11.57;;;3.70;;
66523;SDS011;53350;52.210;5.160;2023-06-05T12:16:18;9.23;;;4.38;;
66523;SDS011;53350;52.210;5.160;2023-06-05T12:18:45;8.48;;;3.65;;
66523;SDS011;53350;52.210;5.160;2023-06-05T12:21:21;7.00;;;4.20;;
66523;SDS011;53350;52.210;5.160;2023-06-05T12:23:48;9.13;;;3.80;;
66523;SDS011;53350;52.210;5.160;2023-06-05T12:26:15;6.93;;;3.58;;
66523;SDS011;53350;52.210;5.160;2023-06-05T12:28:42;6.78;;;3.60;;
66523;SDS011;53350;52.210;5.160;2023-06-05T12:31:10;7.25;;;4.00;;
66523;SDS011;53350;52.210;5.160;2023-06-05T12:33:45;13.15;;;4.30;;
66523;SDS011;53350;52.210;5.160;2023-06-05T12:36:12;12.10;;;4.38;;
66523;SDS011;53350;52.210;5.160;2023-06-05T12:38:40;9.63;;;4.07;;
66523;SDS011;53350;52.210;5.160;2023-06-05T12:41:07;8.63;;;4.20;;
66523;SDS011;53350;52.210;5.160;2023-06-05T12:43:34;6.15;;;3.78;;
66523;SDS011;53350;52.210;5.160;2023-06-05T12:46:01;6.60;;;4.03;;
66523;SDS011;53350;52.210;5.160;2023-06-05T12:48:28;7.97;;;4.35;;
66523;SDS011;53350;52.210;5.160;2023-06-05T12:50:54;8.32;;;4.03;;
66523;SDS011;53350;52.210;5.160;2023-06-05T12:53:21;7.10;;;4.28;;
66523;SDS011;53350;52.210;5.160;2023-06-05T12:55:49;7.72;;;3.60;;
66523;SDS011;53350;52.210;5.160;2023-06-05T12:58:15;8.55;;;4.40;;
66523;SDS011;53350;52.210;5.160;2023-06-05T13:00:42;10.05;;;4.70;;
66523;SDS011;53350;52.210;5.160;2023-06-05T13:03:09;8.95;;;4.40;;
66523;SDS011;53350;52.210;5.160;2023-06-05T13:05:35;8.88;;;4.60;;
66523;SDS011;53350;52.210;5.160;2023-06-05T13:08:02;9.50;;;4.22;;
66523;SDS011;53350;52.210;5.160;2023-06-05T13:10:28;7.28;;;4.00;;
66523;SDS011;53350;52.210;5.160;2023-06-05T13:12:56;8.15;;;3.92;;
66523;SDS011;53350;52.210;5.160;2023-06-05T13:15:22;10.05;;;4.65;;
66523;SDS011;53350;52.210;5.160;2023-06-05T13:17:49;9.35;;;4.10;;
66523;SDS011;53350;52.210;5.160;2023-06-05T13:20:15;12.55;;;3.90;;
66523;SDS011;53350;52.210;5.160;2023-06-05T13:22:42;7.53;;;4.75;;
66523;SDS011;53350;52.210;5.160;2023-06-05T13:25:08;9.23;;;4.47;;
66523;SDS011;53350;52.210;5.160;2023-06-05T13:27:36;12.40;;;4.43;;
66523;SDS011;53350;52.210;5.160;2023-06-05T13:30:04;8.27;;;4.90;;
66523;SDS011;53350;52.210;5.160;2023-06-05T13:32:32;10.68;;;4.72;;
66523;SDS011;53350;52.210;5.160;2023-06-05T13:34:59;7.57;;;3.92;;
66523;SDS011;53350;52.210;5.160;2023-06-05T13:37:25;8.60;;;4.10;;
66523;SDS011;53350;52.210;5.160;2023-06-05T13:39:51;8.95;;;4.35;;
66523;SDS011;53350;52.210;5.160;2023-06-05T13:42:18;9.07;;;4.57;;
66523;SDS011;53350;52.210;5.160;2023-06-05T13:44:44;7.15;;;4.22;;
66523;SDS011;53350;52.210;5.160;2023-06-05T13:47:12;8.55;;;4.45;;
66523;SDS011;53350;52.210;5.160;2023-06-05T13:49:39;13.52;;;4.82;;
66523;SDS011;53350;52.210;5.160;2023-06-05T13:52:06;10.10;;;4.50;;
66523;SDS011;53350;52.210;5.160;2023-06-05T13:54:33;8.02;;;4.68;;
66523;SDS011;53350;52.210;5.160;2023-06-05T13:56:59;8.05;;;4.55;;
66523;SDS011;53350;52.210;5.160;2023-06-05T13:59:25;6.45;;;3.95;;
66523;SDS011;53350;52.210;5.160;2023-06-05T14:01:52;7.32;;;4.43;;
66523;SDS011;53350;52.210;5.160;2023-06-05T14:04:20;8.20;;;4.53;;
66523;SDS011;53350;52.210;5.160;2023-06-05T14:06:47;8.98;;;4.65;;
66523;SDS011;53350;52.210;5.160;2023-06-05T14:09:13;8.70;;;4.07;;
66523;SDS011;53350;52.210;5.160;2023-06-05T14:11:40;7.13;;;3.70;;
66523;SDS011;53350;52.210;5.160;2023-06-05T14:14:09;8.75;;;4.72;;
66523;SDS011;53350;52.210;5.160;2023-06-05T14:16:35;8.77;;;4.47;;
66523;SDS011;53350;52.210;5.160;2023-06-05T14:19:02;9.25;;;4.18;;
66523;SDS011;53350;52.210;5.160;2023-06-05T14:21:30;8.77;;;4.57;;
66523;SDS011;53350;52.210;5.160;2023-06-05T14:23:56;9.40;;;4.38;;
66523;SDS011;53350;52.210;5.160;2023-06-05T14:26:23;9.80;;;5.20;;
66523;SDS011;53350;52.210;5.160;2023-06-05T14:28:50;11.30;;;4.85;;
66523;SDS011;53350;52.210;5.160;2023-06-05T14:31:17;12.35;;;4.53;;
66523;SDS011;53350;52.210;5.160;2023-06-05T14:33:43;11.55;;;4.80;;
66523;SDS011;53350;52.210;5.160;2023-06-05T14:36:09;9.13;;;4.43;;
66523;SDS011;53350;52.210;5.160;2023-06-05T14:38:37;7.55;;;4.47;;
66523;SDS011;53350;52.210;5.160;2023-06-05T14:41:04;7.32;;;4.05;;
66523;SDS011;53350;52.210;5.160;2023-06-05T14:43:30;7.68;;;4.05;;
66523;SDS011;53350;52.210;5.160;2023-06-05T14:45:56;8.30;;;3.92;;
66523;SDS011;53350;52.210;5.160;2023-06-05T14:50:51;10.75;;;5.00;;
66523;SDS011;53350;52.210;5.160;2023-06-05T14:53:18;7.95;;;4.78;;
66523;SDS011;53350;52.210;5.160;2023-06-05T14:55:46;9.23;;;4.80;;
66523;SDS011;53350;52.210;5.160;2023-06-05T14:58:12;11.95;;;4.80;;
66523;SDS011;53350;52.210;5.160;2023-06-05T15:00:39;10.27;;;4.82;;
66523;SDS011;53350;52.210;5.160;2023-06-05T15:03:05;7.80;;;4.32;;
66523;SDS011;53350;52.210;5.160;2023-06-05T15:05:32;10.63;;;4.88;;
66523;SDS011;53350;52.210;5.160;2023-06-05T15:08:01;8.93;;;5.03;;
66523;SDS011;53350;52.210;5.160;2023-06-05T15:10:27;8.85;;;5.32;;
66523;SDS011;53350;52.210;5.160;2023-06-05T15:12:55;7.95;;;4.80;;
66523;SDS011;53350;52.210;5.160;2023-06-05T15:15:22;8.43;;;4.53;;